Weather at Thule Air Base

Public forecast

Using degrees Celsius for public forecast. Weather courtesy of forecast.io.

Current aviation weather report (METAR) for Thule Air Base

Retrieved 2021/03/02 17:56 UTC (33 minutes ago):

BGTL 021756Z AUTO 08010KT 9999 CLR M15/M21 A3012 RMK AO2 SLP191 T11531214 11149 21185 57021 TSNO

Aviation forecast (TAF) for Thule Air Base

Forecast is more than 6 hours old.

Retrieved 2021/03/02 10:06 UTC (8 hours ago):

TAF BGTL 021000Z 0210/0316 11010G15KT 9999 DRSN FEW010 BKN050 530207 QNH3022INS TEMPO 0210/0219 15020G35KT 1600 -SN BLSN SCT010 BKN050 620504 530009 BECMG 0218/0219 09009KT 9999 NSW SCT050 BKN100 520306 QNH3002INS TEMPO 0219/0224 15020G30KT 5000 BLSN 520009 BECMG 0301/0302 12030G40KT 1200 BLSN BKN030 620307 560009 QNH2979INS TXM10/0303Z TNM19/0212Z